Time;durP1;ratioP1;P1;durP2;ratioP2;P2;SDS_P1;SDS_P2;PMS_P1;PMS_P2;Temp;Humidity;BMP_temperature;BMP_pressure;BME280_temperature;BME280_humidity;BME280_pressure;Samples;Min_cycle;Max_cycle;Signal;HPM_P1;HPM_P2
2022/03/25 00:00:14;;;;;;;26.80;17.30;;;10.40;52.50;;;;;;5093662;28;20444;-58
2022/03/25 00:02:42;;;;;;;24.60;16.53;;;10.10;52.10;;;;;;5093381;28;20432;-58
2022/03/25 00:05:10;;;;;;;24.73;15.97;;;10.10;52.10;;;;;;5093550;28;20439;-58
2022/03/25 00:07:37;;;;;;;29.80;17.03;;;10.00;52.30;;;;;;5093176;28;21030;-58
2022/03/25 00:10:05;;;;;;;27.00;17.63;;;10.00;52.50;;;;;;5093335;28;20501;-58
2022/03/25 00:12:34;;;;;;;21.27;15.50;;;10.00;52.40;;;;;;5093106;28;20490;-59
2022/03/25 00:15:01;;;;;;;23.00;15.60;;;10.00;53.10;;;;;;5093142;28;20431;-58
2022/03/25 00:17:29;;;;;;;27.07;16.13;;;10.00;53.30;;;;;;5093160;28;21053;-59
2022/03/25 00:19:56;;;;;;;24.63;16.67;;;10.00;53.20;;;;;;5093384;28;20534;-58
2022/03/25 00:22:23;;;;;;;27.23;15.90;;;9.90;53.60;;;;;;5093090;28;20535;-57
2022/03/25 00:24:50;;;;;;;24.63;17.60;;;9.90;53.80;;;;;;5093578;28;20458;-57
2022/03/25 00:27:18;;;;;;;24.90;18.83;;;10.00;53.60;;;;;;5093280;28;20463;-57
2022/03/25 00:29:47;;;;;;;23.77;16.00;;;10.00;53.90;;;;;;5093035;28;20785;-58
2022/03/25 00:32:16;;;;;;;25.17;17.03;;;9.90;54.60;;;;;;5093210;28;20949;-57
2022/03/25 00:34:43;;;;;;;22.07;16.30;;;9.80;54.40;;;;;;5093456;28;20485;-57
2022/03/25 00:37:11;;;;;;;24.57;16.43;;;9.90;55.20;;;;;;5092844;28;20574;-56
2022/03/25 00:39:38;;;;;;;21.90;15.77;;;9.90;55.30;;;;;;5094006;28;20454;-58
2022/03/25 00:42:06;;;;;;;25.57;17.23;;;9.80;55.30;;;;;;5093370;28;20461;-58
2022/03/25 00:44:33;;;;;;;22.73;17.03;;;9.80;54.90;;;;;;5093244;28;20455;-58
2022/03/25 00:47:02;;;;;;;21.80;14.73;;;9.70;54.90;;;;;;5092934;28;20469;-58
2022/03/25 00:49:30;;;;;;;24.80;17.80;;;9.70;55.60;;;;;;5092961;28;20454;-58
2022/03/25 00:51:58;;;;;;;21.57;15.13;;;9.60;55.90;;;;;;5092549;28;20926;-58
2022/03/25 00:54:25;;;;;;;27.80;16.80;;;9.50;56.00;;;;;;5093181;28;20833;-57
2022/03/25 00:56:52;;;;;;;25.87;15.53;;;9.60;56.30;;;;;;5093056;28;20574;-57
2022/03/25 00:59:20;;;;;;;26.80;17.33;;;9.60;56.30;;;;;;5093038;28;20531;-57
2022/03/25 01:01:47;;;;;;;22.73;16.30;;;9.50;56.40;;;;;;5093037;28;20473;-57
2022/03/25 01:04:16;;;;;;;27.60;17.83;;;9.60;56.50;;;;;;5093170;28;20455;-57
2022/03/25 01:06:43;;;;;;;22.27;16.43;;;9.50;56.20;;;;;;5092630;28;20483;-57
2022/03/25 01:09:10;;;;;;;26.97;17.00;;;9.50;56.20;;;;;;5092958;28;20560;-57
2022/03/25 01:11:37;;;;;;;22.87;15.93;;;9.50;56.60;;;;;;5093150;28;20490;-58
2022/03/25 01:14:05;;;;;;;24.70;16.37;;;9.40;56.80;;;;;;5093039;28;20974;-58
2022/03/25 01:16:34;;;;;;;30.07;16.33;;;9.30;57.00;;;;;;5092453;28;20561;-57
2022/03/25 01:19:01;;;;;;;26.93;16.90;;;9.30;57.20;;;;;;5092608;28;20443;-58
2022/03/25 01:21:30;;;;;;;23.50;15.27;;;9.30;57.50;;;;;;5092685;28;20944;-59
2022/03/25 01:23:57;;;;;;;23.63;17.63;;;9.30;57.50;;;;;;5095544;28;20461;-58
2022/03/25 01:26:25;;;;;;;22.23;16.27;;;9.10;57.50;;;;;;5096442;28;20449;-58
2022/03/25 01:28:52;;;;;;;21.07;14.67;;;9.10;57.10;;;;;;5096172;28;20892;-58
2022/03/25 01:31:20;;;;;;;26.20;16.00;;;9.30;57.00;;;;;;5096091;28;20444;-58
2022/03/25 01:33:47;;;;;;;26.27;18.60;;;9.30;57.00;;;;;;5096276;28;20454;-58
2022/03/25 01:36:15;;;;;;;25.77;17.50;;;9.30;57.80;;;;;;5096291;28;20479;-57
2022/03/25 01:38:44;;;;;;;28.30;16.80;;;9.30;57.50;;;;;;5095854;28;20518;-58
2022/03/25 01:41:12;;;;;;;22.80;15.30;;;9.30;57.70;;;;;;5095798;28;20445;-57
2022/03/25 01:43:39;;;;;;;23.33;16.97;;;9.30;58.10;;;;;;5096307;28;20483;-58
2022/03/25 01:46:07;;;;;;;24.73;16.40;;;9.20;58.00;;;;;;5095674;28;20459;-58
2022/03/25 01:48:34;;;;;;;27.30;17.80;;;9.20;58.00;;;;;;5095605;28;20513;-59
2022/03/25 01:51:03;;;;;;;25.60;16.83;;;9.10;58.00;;;;;;5096108;28;20784;-58
2022/03/25 01:53:30;;;;;;;25.50;18.43;;;9.00;58.40;;;;;;5094682;28;20475;-58
2022/03/25 01:56:01;;;;;;;26.67;16.27;;;8.90;58.80;;;;;;5095479;28;20444;-58
2022/03/25 01:58:30;;;;;;;25.80;17.83;;;8.90;58.90;;;;;;5095472;28;20463;-56
2022/03/25 02:00:58;;;;;;;22.63;15.93;;;8.90;59.00;;;;;;5095590;28;20447;-56
2022/03/25 02:03:26;;;;;;;23.50;15.60;;;8.90;59.10;;;;;;5095376;28;20981;-56
2022/03/25 02:05:53;;;;;;;21.90;16.10;;;8.80;59.30;;;;;;5095409;28;20448;-56
2022/03/25 02:08:20;;;;;;;24.10;17.00;;;8.60;59.80;;;;;;5095701;28;20814;-56
2022/03/25 02:10:47;;;;;;;21.67;15.37;;;8.70;59.80;;;;;;5095110;28;20447;-56
2022/03/25 02:13:16;;;;;;;24.97;15.90;;;8.70;59.80;;;;;;5095477;28;20463;-56
2022/03/25 02:15:46;;;;;;;25.90;15.23;;;8.60;60.40;;;;;;5095466;28;20455;-56
2022/03/25 02:18:15;;;;;;;22.30;16.63;;;8.60;60.70;;;;;;5095360;28;20487;-56
2022/03/25 02:20:43;;;;;;;21.77;15.97;;;8.70;60.20;;;;;;5095347;28;20470;-56
2022/03/25 02:23:12;;;;;;;22.30;17.33;;;8.80;60.50;;;;;;5095436;28;20853;-56
2022/03/25 02:25:41;;;;;;;19.77;15.60;;;8.70;59.90;;;;;;5095365;28;20443;-56
2022/03/25 02:28:08;;;;;;;21.73;16.40;;;8.70;60.80;;;;;;5094858;28;20467;-56
2022/03/25 02:30:37;;;;;;;23.00;17.07;;;8.50;61.00;;;;;;5094908;28;20454;-56
2022/03/25 02:33:05;;;;;;;20.83;15.50;;;8.40;61.50;;;;;;5095029;28;20447;-56
2022/03/25 02:35:39;;;;;;;21.00;15.27;;;8.30;61.60;;;;;;5094756;28;20447;-56
2022/03/25 02:38:08;;;;;;;26.63;16.07;;;8.30;62.40;;;;;;5094914;28;20497;-56
2022/03/25 02:40:37;;;;;;;30.13;17.10;;;8.40;62.30;;;;;;5094790;28;20934;-56
2022/03/25 02:43:05;;;;;;;27.13;17.93;;;8.30;61.70;;;;;;5095084;28;20455;-56
2022/03/25 02:45:32;;;;;;;25.00;16.80;;;8.10;62.20;;;;;;5094523;28;20447;-56
2022/03/25 02:48:02;;;;;;;24.00;16.83;;;8.20;62.90;;;;;;5094753;28;20465;-56
2022/03/25 02:50:30;;;;;;;21.80;15.93;;;8.30;63.60;;;;;;5094603;28;20447;-56
2022/03/25 02:52:58;;;;;;;22.27;15.70;;;8.40;64.10;;;;;;5094402;28;20479;-56
2022/03/25 02:55:26;;;;;;;21.53;16.27;;;8.40;63.90;;;;;;5094370;28;20530;-55
2022/03/25 02:57:55;;;;;;;18.50;14.57;;;8.30;63.70;;;;;;5094654;28;20493;-56
2022/03/25 03:00:22;;;;;;;23.60;16.10;;;8.30;64.40;;;;;;5094304;28;20513;-56
2022/03/25 03:02:50;;;;;;;23.10;15.23;;;8.30;65.00;;;;;;5094216;28;20450;-56
2022/03/25 03:05:17;;;;;;;23.83;16.80;;;8.20;63.70;;;;;;5094650;28;20869;-56
2022/03/25 03:07:46;;;;;;;16.63;13.90;;;8.10;64.00;;;;;;5094402;28;20463;-56
2022/03/25 03:10:14;;;;;;;19.83;16.30;;;8.00;65.50;;;;;;5094111;28;20451;-57
2022/03/25 03:12:42;;;;;;;25.23;16.33;;;8.10;65.50;;;;;;5094099;28;20452;-56
2022/03/25 03:15:12;;;;;;;22.13;16.33;;;8.00;65.70;;;;;;5094014;28;20484;-56
2022/03/25 03:17:39;;;;;;;22.87;16.53;;;8.00;66.50;;;;;;5094117;28;20510;-56
2022/03/25 03:20:07;;;;;;;21.57;15.60;;;8.00;66.30;;;;;;5094020;28;20882;-56
2022/03/25 03:22:35;;;;;;;24.03;16.63;;;8.00;65.50;;;;;;5094379;28;20446;-56
2022/03/25 03:25:03;;;;;;;19.40;15.90;;;8.00;66.30;;;;;;5094148;28;20807;-56
2022/03/25 03:27:30;;;;;;;31.80;16.13;;;8.00;67.20;;;;;;5093758;28;20459;-56
2022/03/25 03:29:58;;;;;;;21.30;17.60;;;7.80;69.90;;;;;;5093993;28;20440;-56
2022/03/25 03:32:27;;;;;;;23.23;15.30;;;7.80;68.40;;;;;;5094055;28;20488;-56
2022/03/25 03:34:54;;;;;;;26.60;18.03;;;7.70;67.80;;;;;;5093746;28;20493;-56
2022/03/25 03:37:22;;;;;;;24.20;17.67;;;7.60;68.30;;;;;;5093920;28;20562;-56
2022/03/25 03:39:50;;;;;;;24.20;17.60;;;7.70;69.30;;;;;;5093895;28;20788;-57
2022/03/25 03:42:17;;;;;;;23.77;15.20;;;7.70;69.60;;;;;;5093766;28;20448;-56
2022/03/25 03:44:44;;;;;;;25.03;17.33;;;7.60;69.80;;;;;;5093735;28;20481;-55
2022/03/25 03:47:12;;;;;;;22.53;16.57;;;7.60;70.30;;;;;;5093170;28;20965;-56
2022/03/25 03:49:42;;;;;;;22.30;15.60;;;7.60;70.70;;;;;;5093457;28;20444;-56
2022/03/25 03:52:09;;;;;;;25.03;16.77;;;7.70;70.90;;;;;;5093494;28;20448;-56
2022/03/25 03:54:37;;;;;;;23.40;16.97;;;7.70;70.70;;;;;;5093567;28;20493;-56
2022/03/25 03:57:08;;;;;;;24.67;15.90;;;7.70;70.40;;;;;;5093538;28;20486;-56
2022/03/25 03:59:35;;;;;;;21.73;15.50;;;7.60;70.80;;;;;;5093742;28;20432;-56
2022/03/25 04:02:04;;;;;;;21.30;13.90;;;7.60;71.00;;;;;;5093778;28;20443;-56
2022/03/25 04:04:31;;;;;;;21.03;15.33;;;7.60;71.70;;;;;;5093301;28;20792;-56
2022/03/25 04:07:00;;;;;;;25.03;16.10;;;7.60;72.20;;;;;;5093511;28;20467;-56
2022/03/25 04:09:27;;;;;;;22.83;16.20;;;7.70;72.40;;;;;;5093716;28;20803;-56
2022/03/25 04:11:55;;;;;;;21.10;16.43;;;7.70;71.50;;;;;;5093562;28;20890;-56
2022/03/25 04:14:22;;;;;;;23.03;16.67;;;7.70;72.40;;;;;;5093638;28;20514;-55
2022/03/25 04:16:50;;;;;;;21.50;16.03;;;7.60;73.20;;;;;;5092992;28;20463;-56
2022/03/25 04:19:17;;;;;;;19.10;15.53;;;7.70;73.40;;;;;;5093582;28;20447;-56
2022/03/25 04:21:44;;;;;;;23.70;16.67;;;7.70;74.30;;;;;;5093092;28;20454;-56
2022/03/25 04:24:12;;;;;;;21.97;15.57;;;7.70;73.50;;;;;;5093446;28;20550;-56
2022/03/25 04:26:40;;;;;;;23.87;17.07;;;7.60;73.70;;;;;;5093433;28;20446;-56
2022/03/25 04:29:07;;;;;;;23.53;17.63;;;7.40;73.70;;;;;;5093071;28;20448;-56
2022/03/25 04:31:35;;;;;;;25.07;17.80;;;7.40;74.60;;;;;;5093000;28;20860;-56
2022/03/25 04:34:02;;;;;;;22.23;15.70;;;7.40;74.40;;;;;;5093121;28;20451;-56
2022/03/25 04:36:29;;;;;;;23.17;17.10;;;7.30;74.70;;;;;;5092898;28;20538;-56
2022/03/25 04:38:57;;;;;;;25.73;17.57;;;7.30;75.10;;;;;;5092862;28;20567;-55
2022/03/25 04:41:25;;;;;;;31.00;17.07;;;7.40;74.70;;;;;;5093365;28;20459;-56
2022/03/25 04:43:52;;;;;;;31.13;18.80;;;7.40;75.80;;;;;;5093341;28;20470;-56
2022/03/25 04:46:19;;;;;;;27.43;16.57;;;7.40;76.00;;;;;;5092793;28;20447;-56
2022/03/25 04:48:46;;;;;;;26.20;16.57;;;7.40;75.90;;;;;;5093222;28;20463;-56
2022/03/25 04:51:13;;;;;;;26.40;17.80;;;7.30;75.20;;;;;;5093161;28;20447;-55
2022/03/25 04:53:41;;;;;;;21.83;16.00;;;7.20;75.80;;;;;;5092606;28;20471;-56
2022/03/25 04:56:08;;;;;;;28.47;17.30;;;7.10;76.10;;;;;;5093379;28;20526;-56
2022/03/25 04:58:37;;;;;;;24.73;17.43;;;7.10;76.90;;;;;;5096849;28;20558;-55
2022/03/25 05:01:04;;;;;;;30.23;18.63;;;7.20;77.70;;;;;;5096920;28;20534;-56
2022/03/25 05:03:31;;;;;;;35.33;18.17;;;7.20;77.50;;;;;;5097001;28;20454;-56
2022/03/25 05:05:58;;;;;;;28.40;17.67;;;7.20;77.60;;;;;;5096597;28;20458;-56
2022/03/25 05:08:25;;;;;;;23.20;16.83;;;7.20;77.90;;;;;;5096630;28;20464;-56
2022/03/25 05:10:52;;;;;;;29.30;21.10;;;7.30;78.10;;;;;;5096575;28;20454;-56
2022/03/25 05:13:19;;;;;;;29.93;16.87;;;7.30;77.00;;;;;;5096692;28;20459;-56
2022/03/25 05:15:48;;;;;;;26.80;17.43;;;7.20;77.90;;;;;;5096469;28;20450;-56
2022/03/25 05:18:16;;;;;;;22.17;16.93;;;7.30;78.40;;;;;;5096262;28;20483;-56
2022/03/25 05:20:44;;;;;;;24.83;16.40;;;7.30;78.40;;;;;;5096348;28;20451;-56
2022/03/25 05:23:11;;;;;;;20.60;16.37;;;7.30;78.60;;;;;;5096489;28;20477;-56
2022/03/25 05:25:38;;;;;;;28.27;18.37;;;7.30;78.70;;;;;;5096574;28;20447;-56
2022/03/25 05:28:05;;;;;;;24.20;16.70;;;7.30;78.70;;;;;;5096161;28;20498;-56
2022/03/25 05:30:34;;;;;;;28.27;17.60;;;7.30;79.10;;;;;;5096006;28;20455;-56
2022/03/25 05:33:03;;;;;;;23.37;16.83;;;7.20;78.00;;;;;;5096339;28;20452;-56
2022/03/25 05:35:31;;;;;;;24.43;17.53;;;7.10;78.90;;;;;;5096297;28;20547;-55
2022/03/25 05:37:58;;;;;;;23.83;17.30;;;7.10;80.40;;;;;;5095770;28;20482;-56
2022/03/25 05:40:27;;;;;;;29.73;18.90;;;7.10;80.00;;;;;;5096120;28;20447;-56
2022/03/25 05:42:55;;;;;;;22.57;16.67;;;7.20;80.10;;;;;;5096171;28;20465;-56
2022/03/25 05:45:23;;;;;;;21.80;16.70;;;7.00;80.80;;;;;;5095928;28;20538;-56
2022/03/25 05:47:51;;;;;;;37.23;23.07;;;7.00;81.10;;;;;;5095594;28;20464;-56
2022/03/25 05:50:20;;;;;;;30.07;19.80;;;6.90;81.80;;;;;;5096031;28;20439;-56
2022/03/25 05:52:48;;;;;;;26.30;20.40;;;6.90;83.00;;;;;;5095639;28;20837;-56
2022/03/25 05:55:16;;;;;;;28.07;19.07;;;6.90;82.90;;;;;;5095526;28;20453;-56
2022/03/25 05:57:44;;;;;;;27.73;19.57;;;7.00;82.30;;;;;;5095210;28;20483;-56
2022/03/25 06:00:13;;;;;;;23.27;17.37;;;7.00;82.60;;;;;;5095786;28;20476;-56
2022/03/25 06:02:42;;;;;;;24.80;17.70;;;7.00;82.70;;;;;;5095405;28;20494;-56
2022/03/25 06:05:10;;;;;;;29.40;18.07;;;7.00;82.70;;;;;;5095383;28;20452;-56
2022/03/25 06:07:40;;;;;;;29.87;19.50;;;7.10;83.30;;;;;;5095447;28;21044;-56
2022/03/25 06:10:09;;;;;;;27.27;19.30;;;7.20;81.20;;;;;;5094874;28;20808;-57
2022/03/25 06:12:37;;;;;;;22.77;17.87;;;7.10;79.30;;;;;;5095127;28;20451;-55
2022/03/25 06:15:05;;;;;;;25.67;15.47;;;7.10;78.70;;;;;;5095526;28;20444;-57
2022/03/25 06:17:32;;;;;;;24.60;18.10;;;7.20;77.80;;;;;;5095089;28;20482;-56
2022/03/25 06:19:59;;;;;;;27.83;18.63;;;7.30;79.70;;;;;;5094960;28;21026;-56
2022/03/25 06:22:27;;;;;;;27.27;18.40;;;7.40;79.80;;;;;;5095012;28;20447;-56
2022/03/25 06:24:57;;;;;;;26.93;18.60;;;7.40;79.10;;;;;;5095030;28;20950;-56
2022/03/25 06:27:24;;;;;;;28.10;19.20;;;7.40;79.60;;;;;;5094777;28;20467;-56
2022/03/25 06:29:51;;;;;;;25.50;19.17;;;7.40;78.60;;;;;;5094780;28;20443;-57
2022/03/25 06:32:18;;;;;;;25.83;18.83;;;7.40;79.00;;;;;;5094682;28;20542;-56
2022/03/25 06:34:46;;;;;;;23.20;17.07;;;7.50;79.30;;;;;;5094597;28;20451;-56
2022/03/25 06:37:17;;;;;;;36.93;18.87;;;7.50;78.00;;;;;;5094663;28;20554;-56
2022/03/25 06:39:44;;;;;;;32.30;19.53;;;7.60;77.30;;;;;;5094504;28;20570;-56
2022/03/25 06:42:13;;;;;;;29.77;18.60;;;7.70;77.40;;;;;;5094569;28;20530;-56
2022/03/25 06:44:40;;;;;;;28.37;19.73;;;7.60;77.20;;;;;;5094354;28;20466;-59
2022/03/25 06:47:09;;;;;;;27.43;20.33;;;7.80;78.00;;;;;;5094815;28;21047;-57
2022/03/25 06:49:36;;;;;;;26.67;19.43;;;7.90;78.00;;;;;;5094245;28;20965;-57
2022/03/25 06:52:04;;;;;;;27.77;19.63;;;7.90;78.50;;;;;;5094138;28;20447;-57
2022/03/25 06:54:32;;;;;;;29.70;19.77;;;7.90;78.70;;;;;;5094602;28;20424;-57
2022/03/25 06:57:01;;;;;;;28.90;18.63;;;8.00;75.40;;;;;;5094064;28;20463;-57
2022/03/25 06:59:30;;;;;;;24.73;18.63;;;7.90;76.00;;;;;;5094371;28;20479;-56
2022/03/25 07:01:58;;;;;;;25.57;18.73;;;8.10;75.10;;;;;;5094391;28;20447;-56
2022/03/25 07:04:26;;;;;;;28.93;19.73;;;8.10;74.90;;;;;;5094203;28;20447;-57
2022/03/25 07:06:56;;;;;;;31.00;19.27;;;8.10;74.20;;;;;;5093919;28;20464;-57
2022/03/25 07:09:24;;;;;;;28.90;20.20;;;8.30;75.50;;;;;;5093986;28;20434;-57
2022/03/25 07:11:52;;;;;;;32.00;18.97;;;8.30;74.10;;;;;;5094390;28;20443;-57
2022/03/25 07:14:19;;;;;;;24.60;19.23;;;8.30;73.30;;;;;;5094443;28;20455;-57
2022/03/25 07:16:47;;;;;;;29.73;21.07;;;8.40;74.70;;;;;;5094071;28;20443;-56
2022/03/25 07:19:14;;;;;;;26.37;18.90;;;8.40;73.40;;;;;;5093899;28;20483;-56
2022/03/25 07:21:41;;;;;;;25.27;18.33;;;8.50;74.40;;;;;;5092923;28;20443;-56
2022/03/25 07:24:08;;;;;;;34.07;21.20;;;8.60;74.40;;;;;;5093590;28;20446;-57
2022/03/25 07:26:37;;;;;;;31.77;21.17;;;8.80;73.90;;;;;;5093983;28;20536;-56
2022/03/25 07:29:04;;;;;;;24.30;18.53;;;8.80;73.20;;;;;;5094123;28;20447;-57
2022/03/25 07:31:32;;;;;;;25.43;19.60;;;8.80;73.10;;;;;;5093821;28;20470;-57
2022/03/25 07:34:00;;;;;;;24.70;17.70;;;8.80;72.80;;;;;;5093808;28;20517;-57
2022/03/25 07:36:28;;;;;;;28.43;19.70;;;8.80;72.10;;;;;;5094051;28;20447;-57
2022/03/25 07:38:55;;;;;;;32.13;20.90;;;9.00;74.50;;;;;;5093329;28;20522;-57
2022/03/25 07:41:22;;;;;;;27.53;19.50;;;9.20;73.70;;;;;;5093601;28;20450;-57
2022/03/25 07:43:50;;;;;;;25.83;20.97;;;9.00;71.10;;;;;;5093797;28;20451;-57
2022/03/25 07:46:17;;;;;;;31.27;21.30;;;9.10;72.60;;;;;;5093179;28;20453;-57
2022/03/25 07:48:44;;;;;;;34.50;21.60;;;9.30;72.10;;;;;;5093588;28;20524;-57
2022/03/25 07:51:13;;;;;;;31.13;19.90;;;9.40;70.00;;;;;;5093514;28;20447;-57
2022/03/25 07:53:40;;;;;;;26.87;20.80;;;9.50;70.50;;;;;;5092895;28;20479;-57
2022/03/25 07:56:07;;;;;;;32.63;18.87;;;9.60;71.20;;;;;;5093563;28;20466;-56
2022/03/25 07:58:35;;;;;;;27.13;20.03;;;9.60;72.20;;;;;;5093489;28;20487;-57
2022/03/25 08:01:02;;;;;;;27.90;19.77;;;9.80;72.10;;;;;;5093452;28;20440;-57
2022/03/25 08:03:29;;;;;;;29.90;21.90;;;9.80;71.00;;;;;;5093021;28;20938;-57
2022/03/25 08:05:56;;;;;;;30.27;21.20;;;9.90;71.60;;;;;;5093173;28;20934;-57
2022/03/25 08:08:25;;;;;;;26.63;20.10;;;9.90;70.20;;;;;;5093217;28;20459;-57
2022/03/25 08:10:55;;;;;;;38.17;21.23;;;10.00;68.80;;;;;;5092950;28;20451;-57
2022/03/25 08:13:23;;;;;;;31.47;21.83;;;10.20;67.40;;;;;;5093391;28;20524;-57
2022/03/25 08:15:50;;;;;;;35.83;21.47;;;10.30;66.30;;;;;;5093326;28;20448;-57
2022/03/25 08:18:18;;;;;;;39.03;21.80;;;10.40;66.00;;;;;;5093035;28;20530;-57
2022/03/25 08:20:47;;;;;;;29.47;21.33;;;10.40;66.60;;;;;;5093170;28;20447;-57
2022/03/25 08:27:48;;;;;;;31.87;22.17;;;10.30;66.70;;;;;;5092938;28;20538;-57
2022/03/25 08:28:50;;;;;;;31.50;21.67;;;10.50;65.50;;;;;;5093158;28;20589;-57
2022/03/25 08:31:17;;;;;;;43.93;23.60;;;10.60;65.90;;;;;;5093025;28;20819;-57
2022/03/25 08:33:47;;;;;;;33.57;22.23;;;10.60;64.00;;;;;;5097265;28;20530;-56
2022/03/25 08:36:17;;;;;;;26.20;20.60;;;10.70;64.30;;;;;;5097446;28;20787;-57
2022/03/25 08:38:44;;;;;;;32.40;21.97;;;10.80;64.90;;;;;;5097119;28;20487;-57
2022/03/25 08:41:15;;;;;;;27.33;19.50;;;11.00;63.50;;;;;;5096641;28;20451;-56
2022/03/25 08:43:43;;;;;;;32.20;22.67;;;11.10;63.20;;;;;;5096944;28;20505;-57
2022/03/25 08:46:10;;;;;;;34.53;21.33;;;11.20;63.50;;;;;;5096981;28;20543;-57
2022/03/25 08:48:37;;;;;;;33.43;21.53;;;11.30;62.00;;;;;;5096983;28;20539;-57
2022/03/25 08:51:04;;;;;;;35.20;24.30;;;11.50;63.10;;;;;;5096975;28;20443;-56
2022/03/25 08:53:32;;;;;;;29.97;19.67;;;11.60;61.60;;;;;;5096500;28;20485;-56
2022/03/25 08:55:59;;;;;;;31.97;22.77;;;11.70;61.60;;;;;;5096944;28;20451;-57
2022/03/25 08:58:28;;;;;;;40.07;23.40;;;11.80;60.80;;;;;;5096880;28;20467;-57
2022/03/25 09:00:55;;;;;;;33.70;22.97;;;11.70;61.80;;;;;;5096795;28;20534;-57
2022/03/25 09:03:22;;;;;;;33.73;21.70;;;11.80;61.50;;;;;;5096670;28;20447;-56
2022/03/25 09:05:49;;;;;;;37.03;22.60;;;11.90;62.30;;;;;;5096316;28;20541;-56
2022/03/25 09:08:17;;;;;;;30.57;22.47;;;12.00;60.00;;;;;;5096671;28;20463;-57
2022/03/25 09:10:47;;;;;;;35.33;22.43;;;12.30;59.90;;;;;;5096340;28;20454;-57
2022/03/25 09:13:14;;;;;;;31.50;23.83;;;12.50;60.80;;;;;;5096315;28;20491;-57
2022/03/25 09:15:42;;;;;;;35.90;22.33;;;12.50;58.80;;;;;;5096477;28;20526;-57
2022/03/25 09:18:10;;;;;;;35.37;22.60;;;12.60;59.40;;;;;;5096195;28;20822;-57
2022/03/25 09:20:37;;;;;;;31.50;22.83;;;12.80;58.50;;;;;;5095844;28;20523;-57
2022/03/25 09:23:04;;;;;;;36.83;23.93;;;13.40;57.50;;;;;;5096342;28;20447;-56
2022/03/25 09:25:31;;;;;;;31.43;23.33;;;14.00;57.00;;;;;;5096101;28;20443;-56
2022/03/25 09:27:58;;;;;;;33.03;23.47;;;15.30;56.20;;;;;;5096205;28;20471;-57
2022/03/25 09:30:26;;;;;;;31.63;24.57;;;16.50;54.40;;;;;;5095899;28;20439;-57
2022/03/25 09:32:54;;;;;;;33.23;23.97;;;17.30;53.10;;;;;;5095675;28;21013;-57
2022/03/25 09:35:22;;;;;;;35.30;22.77;;;;;;;;;;5095930;28;20447;-57
2022/03/25 09:37:51;;;;;;;31.73;25.10;;;18.40;51.50;;;;;;5095682;28;20884;-57
2022/03/25 09:40:21;;;;;;;39.87;26.63;;;18.60;50.30;;;;;;5095825;28;20618;-57
2022/03/25 09:42:50;;;;;;;38.00;26.40;;;19.00;48.90;;;;;;5095185;28;20547;-57
2022/03/25 09:45:18;;;;;;;30.30;22.97;;;18.80;49.00;;;;;;5095610;28;20447;-57
2022/03/25 09:47:46;;;;;;;37.60;26.37;;;18.80;48.60;;;;;;5095587;28;20818;-57
2022/03/25 09:50:17;;;;;;;37.10;25.37;;;19.60;48.80;;;;;;5095698;28;20493;-58
2022/03/25 09:52:45;;;;;;;42.90;26.87;;;19.40;47.90;;;;;;5095548;28;20510;-57
2022/03/25 09:55:14;;;;;;;31.50;24.37;;;20.10;47.50;;;;;;5095805;28;20443;-57
2022/03/25 09:57:42;;;;;;;41.33;26.60;;;20.80;46.20;;;;;;5095774;28;20479;-58
2022/03/25 10:00:14;;;;;;;32.03;24.70;;;21.00;45.90;;;;;;5095555;28;20505;-57
2022/03/25 10:02:41;;;;;;;32.37;25.47;;;20.90;45.60;;;;;;5095166;28;20439;-57
2022/03/25 10:05:17;;;;;;;28.17;24.23;;;21.20;45.50;;;;;;5095449;28;20450;-57
2022/03/25 10:07:46;;;;;;;35.10;23.97;;;20.60;44.80;;;;;;5095811;28;20570;-57
2022/03/25 10:10:16;;;;;;;32.67;25.43;;;20.80;44.60;;;;;;5095104;28;20440;-58
2022/03/25 10:12:45;;;;;;;39.80;26.93;;;21.40;43.50;;;;;;5095284;28;20465;-58
2022/03/25 10:15:15;;;;;;;34.73;25.13;;;21.50;43.50;;;;;;5095389;28;20528;-57
2022/03/25 10:17:47;;;;;;;32.80;25.40;;;21.30;42.70;;;;;;5094993;28;20467;-57
2022/03/25 10:20:14;;;;;;;28.37;23.13;;;20.70;42.80;;;;;;5094416;28;20529;-57
2022/03/25 10:23:04;;;;;;;33.97;24.40;;;21.30;42.90;;;;;;5095029;28;20447;-57
2022/03/25 10:25:37;;;;;;;36.30;27.70;;;21.20;42.80;;;;;;5094943;28;20463;-58
2022/03/25 10:28:06;;;;;;;33.17;25.57;;;20.80;42.40;;;;;;5095106;28;20500;-57
2022/03/25 10:30:38;;;;;;;30.93;25.30;;;21.10;42.30;;;;;;5094865;28;20443;-58
2022/03/25 10:33:11;;;;;;;41.53;27.20;;;21.00;42.80;;;;;;5094932;28;20482;-57
2022/03/25 10:35:59;;;;;;;34.73;26.33;;;20.50;42.80;;;;;;5094547;28;20479;-58
2022/03/25 10:38:41;;;;;;;35.50;24.20;;;20.90;42.40;;;;;;5094548;28;20467;-58
2022/03/25 10:41:09;;;;;;;32.03;23.27;;;22.00;42.30;;;;;;5094529;28;20780;-58
2022/03/25 10:43:47;;;;;;;29.40;23.73;;;22.00;40.00;;;;;;5094922;28;20490;-57
2022/03/25 10:46:28;;;;;;;26.87;23.90;;;21.90;39.80;;;;;;5094382;28;20493;-58
2022/03/25 10:48:55;;;;;;;34.53;24.40;;;21.90;38.90;;;;;;5094803;28;20424;-58
2022/03/25 10:51:22;;;;;;;27.40;23.20;;;22.10;38.40;;;;;;5094308;28;20444;-57
2022/03/25 10:53:58;;;;;;;31.10;26.67;;;21.70;38.90;;;;;;5094229;28;20479;-58
2022/03/25 10:56:26;;;;;;;28.90;23.77;;;21.50;39.30;;;;;;5094170;28;20474;-58
2022/03/25 10:58:55;;;;;;;31.10;24.43;;;22.20;38.90;;;;;;5094278;28;20582;-58
2022/03/25 11:01:25;;;;;;;26.83;22.70;;;22.90;39.10;;;;;;5094436;28;20472;-57
2022/03/25 11:03:53;;;;;;;30.07;23.57;;;23.20;38.70;;;;;;5094357;28;20826;-58
2022/03/25 11:06:21;;;;;;;32.57;26.57;;;23.40;38.00;;;;;;5094093;28;20629;-58
2022/03/25 11:08:48;;;;;;;33.50;23.93;;;23.50;39.00;;;;;;5093968;28;21057;-58
2022/03/25 11:11:18;;;;;;;32.33;24.27;;;23.80;38.80;;;;;;5094130;28;20522;-58
2022/03/25 11:13:46;;;;;;;35.43;27.10;;;24.20;39.20;;;;;;5094029;28;20455;-58
2022/03/25 11:16:16;;;;;;;28.70;23.87;;;24.10;38.80;;;;;;5093828;28;20999;-58
2022/03/25 11:18:45;;;;;;;32.77;24.50;;;23.70;38.00;;;;;;5093794;28;20965;-58
2022/03/25 11:21:14;;;;;;;33.50;24.30;;;24.20;38.30;;;;;;5093990;28;20549;-58
2022/03/25 11:23:47;;;;;;;25.97;21.40;;;24.00;38.10;;;;;;5094292;28;20819;-59
2022/03/25 11:26:20;;;;;;;29.33;23.40;;;24.60;37.80;;;;;;5094095;28;20790;-58
2022/03/25 11:28:53;;;;;;;24.50;20.57;;;24.60;36.60;;;;;;5093678;28;20459;-58
2022/03/25 11:31:20;;;;;;;26.57;23.00;;;24.70;36.60;;;;;;5093576;28;20896;-58
2022/03/25 11:34:19;;;;;;;23.97;21.27;;;24.60;36.20;;;;;;5093436;28;20469;-58
2022/03/25 11:37:16;;;;;;;31.27;23.50;;;25.00;36.10;;;;;;5059513;28;20555;-58
2022/03/25 11:39:43;;;;;;;27.63;22.53;;;24.70;35.40;;;;;;5093289;28;20463;-58
2022/03/25 11:42:37;;;;;;;26.77;23.67;;;24.10;34.10;;;;;;5093597;28;20451;-58
2022/03/25 11:45:33;;;;;;;27.90;23.37;;;24.20;35.70;;;;;;5093422;28;20455;-58
2022/03/25 11:48:37;;;;;;;30.97;22.97;;;24.70;36.20;;;;;;5093370;28;20585;-59
2022/03/25 11:51:27;;;;;;;32.20;24.20;;;25.00;36.20;;;;;;5093407;28;20470;-58
2022/03/25 11:53:54;;;;;;;28.27;23.10;;;24.90;36.60;;;;;;5092818;28;20482;-58
2022/03/25 11:56:21;;;;;;;27.63;23.40;;;25.60;36.90;;;;;;5093198;28;20443;-58
2022/03/25 11:59:01;;;;;;;25.87;21.90;;;25.30;36.30;;;;;;5093443;28;20811;-58
2022/03/25 12:01:31;;;;;;;26.43;22.13;;;24.70;34.90;;;;;;5093149;28;20451;-58
2022/03/25 12:03:59;;;;;;;26.83;22.17;;;24.30;34.50;;;;;;5079006;28;20455;-58
2022/03/25 12:06:28;;;;;;;28.80;23.47;;;24.70;35.50;;;;;;5080408;28;20444;-56
2022/03/25 12:09:00;;;;;;;29.60;23.23;;;24.50;35.30;;;;;;5073968;28;20804;-59
2022/03/25 12:11:50;;;;;;;29.13;23.88;;;24.20;35.70;;;;;;5072394;28;20470;-57
2022/03/25 12:14:19;;;;;;;28.23;23.20;;;24.10;35.20;;;;;;5091069;28;20193;-54
2022/03/25 12:17:03;;;;;;;27.17;24.00;;;23.70;35.20;;;;;;5083766;28;20833;-50
2022/03/25 12:19:53;;;;;;;27.15;24.25;;;24.50;36.20;;;;;;5072516;28;20456;-63
2022/03/25 12:22:40;;;;;;;30.47;25.90;;;23.90;35.90;;;;;;5071058;28;20194;-57
2022/03/25 12:25:11;;;;;;;29.93;23.03;;;24.30;35.70;;;;;;5070521;28;20439;-58
2022/03/25 12:27:39;;;;;;;27.63;22.43;;;23.70;34.80;;;;;;5071145;28;20468;-58
2022/03/25 12:30:09;;;;;;;25.33;22.35;;;24.40;35.40;;;;;;5071261;28;20438;-60
2022/03/25 12:32:38;;;;;;;28.90;23.20;;;24.50;34.10;;;;;;5072524;28;20191;-59
2022/03/25 12:35:08;;;;;;;30.97;25.47;;;24.30;35.50;;;;;;5074483;28;20868;-59
2022/03/25 12:38:00;;;;;;;26.27;23.17;;;24.20;35.90;;;;;;5073290;28;20525;-60
2022/03/25 12:40:29;;;;;;;26.13;20.10;;;23.40;34.80;;;;;;5078561;28;20501;-59
2022/03/25 12:42:58;;;;;;;25.77;22.20;;;24.20;35.20;;;;;;5093206;28;20473;-61
2022/03/25 12:45:31;;;;;;;29.40;22.80;;;24.60;35.80;;;;;;5092776;28;20828;-63